KSOW/SOW METAR and TAF weather

Enter ICAO airport designator
Station Type Date Time Source
KSOW METAR 2020/04/10 19:15 UTC NOAA

KSOW 101915Z AUTO 20010G18KT 10SM CLR 14/M10 A3006 RMK AO2


Station Type Date Time Source
KSOW Decoded METAR 2020/04/10 19:15 UTC NOAA

Show Low, Show Low Regional Airport, AZ, United States (KSOW) 34-15-55N 110-00-20W
Apr 10, 2020 - 03:15 PM EDT / 2020.04.10 1915 UTC
Wind: from the SSW (200 degrees) at 12 MPH (10 KT) gusting to 21 MPH (18 KT):0
Visibility: 10 mile(s):0
Sky conditions: clear
Temperature: 57 F (14 C)
Dew Point: 14 F (-10 C)
Relative Humidity: 17%
Pressure (altimeter): 30.06 in. Hg (1017 hPa)
ob: KSOW 101915Z AUTO 20010G18KT 10SM CLR 14/M10 A3006 RMK AO2
cycle: 19

Station Type Date Time Source
KSOW TAF UTC NOAA

Error!

Example: see airport list